createdAt,value
2018-09-25T00:02:16.448Z,99.99
2018-09-25T00:12:13.640Z,99.99
2018-09-25T00:17:08.881Z,99.99
2018-09-25T00:22:05.935Z,99.99
2018-09-25T00:27:02.427Z,99.99
2018-09-25T00:31:57.935Z,99.99
2018-09-25T00:36:53.664Z,99.99
2018-09-25T00:41:49.387Z,99.99
2018-09-25T00:46:45.146Z,99.99
2018-09-25T00:51:40.962Z,99.99
2018-09-25T00:56:36.433Z,99.99
2018-09-25T01:01:32.222Z,99.99
2018-09-25T01:06:28.389Z,99.99
2018-09-25T01:11:24.113Z,99.99
2018-09-25T01:16:19.957Z,99.99
2018-09-25T01:21:16.793Z,99.99
2018-09-25T01:26:12.295Z,99.99
2018-09-25T01:31:08.031Z,99.99
2018-09-25T01:36:04.684Z,99.99
2018-09-25T01:41:01.173Z,99.99
2018-09-25T01:45:56.634Z,99.99
2018-09-25T01:50:53.120Z,99.99
2018-09-25T01:55:49.884Z,99.99
2018-09-25T02:00:46.056Z,99.99
2018-09-25T02:05:42.248Z,99.99
2018-09-25T02:10:37.847Z,99.99
2018-09-25T02:15:34.298Z,99.99
2018-09-25T02:20:30.998Z,99.99
2018-09-25T02:25:27.733Z,99.99
2018-09-25T02:30:23.969Z,99.99
2018-09-25T02:35:19.333Z,99.99
2018-09-25T02:40:15.152Z,99.99
2018-09-25T02:45:10.891Z,99.99
2018-09-25T02:50:06.816Z,99.99
2018-09-25T02:55:02.780Z,99.99
2018-09-25T02:59:58.419Z,99.99
2018-09-25T03:04:54.270Z,99.99
2018-09-25T03:09:51.065Z,99.99
2018-09-25T03:14:46.692Z,99.99
2018-09-25T03:19:43.422Z,99.99
2018-09-25T03:24:39.441Z,99.99
2018-09-25T03:29:35.296Z,99.99
2018-09-25T03:34:30.927Z,99.99
2018-09-25T03:39:27.756Z,99.99
2018-09-25T03:44:23.064Z,99.99
2018-09-25T03:49:18.890Z,99.99
2018-09-25T03:54:14.417Z,99.99
2018-09-25T03:59:09.998Z,99.99
2018-09-25T04:04:05.528Z,99.99
2018-09-25T04:09:02.534Z,99.99
2018-09-25T04:13:57.948Z,99.99
2018-09-25T04:18:53.668Z,99.99
2018-09-25T04:23:49.388Z,99.99
2018-09-25T04:28:45.104Z,99.99
2018-09-25T04:33:40.698Z,99.99
2018-09-25T04:38:36.521Z,99.99
2018-09-25T04:43:32.232Z,99.99
2018-09-25T04:48:28.172Z,99.99
2018-09-25T04:53:23.905Z,99.99
2018-09-25T04:58:20.605Z,99.99
2018-09-25T05:03:16.256Z,99.99
2018-09-25T05:08:13.217Z,99.99
2018-09-25T05:13:09.582Z,99.99
2018-09-25T05:18:04.791Z,99.99
2018-09-25T05:23:00.587Z,99.99
2018-09-25T05:27:55.974Z,99.99
2018-09-25T05:32:51.579Z,99.99
2018-09-25T05:37:47.303Z,99.99
2018-09-25T05:42:43.296Z,99.99
2018-09-25T05:47:38.797Z,99.99
2018-09-25T05:52:34.403Z,99.99
2018-09-25T05:57:30.274Z,99.99
2018-09-25T06:02:26.419Z,99.99
2018-09-25T06:07:22.404Z,99.99
2018-09-25T06:12:18.212Z,99.99
2018-09-25T06:17:14.086Z,99.99
2018-09-25T06:22:10.846Z,99.99
2018-09-25T06:27:06.336Z,99.99
2018-09-25T06:32:02.235Z,99.99
2018-09-25T06:36:59.995Z,99.99
2018-09-25T06:41:55.567Z,99.99
2018-09-25T06:46:51.671Z,99.99
2018-09-25T06:51:47.353Z,99.99
2018-09-25T06:56:43.282Z,99.99
2018-09-25T07:01:39.090Z,99.99
2018-09-25T07:06:35.278Z,99.99
2018-09-25T07:11:31.032Z,99.99
2018-09-25T07:16:26.824Z,99.99
2018-09-25T07:21:23.736Z,99.99
2018-09-25T07:26:20.273Z,99.99
2018-09-25T07:31:15.827Z,99.99
2018-09-25T07:36:11.958Z,99.99
2018-09-25T07:41:07.856Z,99.99
2018-09-25T07:46:04.846Z,99.99
2018-09-25T07:51:01.448Z,99.99
2018-09-25T07:55:57.578Z,99.99
2018-09-25T08:00:54.505Z,99.99
2018-09-25T08:05:52.140Z,99.99
2018-09-25T08:10:48.002Z,99.99
2018-09-25T08:15:44.196Z,99.99
2018-09-25T08:20:40.890Z,99.99
2018-09-25T08:25:36.163Z,99.99
2018-09-25T08:30:32.130Z,99.99
2018-09-25T08:40:28.081Z,99.99
2018-09-25T08:45:23.882Z,99.99
2018-09-25T08:50:19.512Z,99.99
2018-09-25T08:55:16.135Z,99.99
2018-09-25T09:00:12.165Z,99.99
2018-09-25T09:05:08.272Z,99.99
2018-09-25T09:10:04.751Z,99.99
2018-09-25T09:15:00.371Z,99.99
2018-09-25T09:19:56.752Z,99.99
2018-09-25T09:24:52.481Z,99.99
2018-09-25T09:29:48.773Z,99.99
2018-09-25T09:34:46.059Z,99.99
2018-09-25T09:39:41.692Z,99.99
2018-09-25T09:44:38.345Z,99.99
2018-09-25T09:49:35.268Z,99.99
2018-09-25T09:54:31.938Z,99.99
2018-09-25T09:59:29.778Z,99.99
2018-09-25T10:04:26.069Z,99.99
2018-09-25T10:09:22.499Z,99.33
2018-09-25T10:14:18.591Z,94.74
2018-09-25T10:19:14.545Z,96.37
2018-09-25T10:24:11.853Z,92.64
2018-09-25T10:29:07.539Z,92.26
2018-09-25T10:34:04.431Z,92.16
2018-09-25T10:38:59.828Z,92.21
2018-09-25T10:43:56.850Z,91.02
2018-09-25T10:48:53.579Z,91.35
2018-09-25T10:53:49.184Z,91.59
2018-09-25T10:58:46.155Z,91.35
2018-09-25T11:03:42.135Z,89.73
2018-09-25T11:08:38.730Z,87.86
2018-09-25T11:13:36.468Z,80.96
2018-09-25T11:18:35.454Z,75.77
2018-09-25T11:23:31.327Z,76.00
2018-09-25T11:28:27.500Z,76.32
2018-09-25T11:33:23.542Z,76.67
2018-09-25T11:38:20.003Z,71.63
2018-09-25T11:43:16.563Z,71.44
2018-09-25T11:48:13.629Z,71.40
2018-09-25T11:53:09.760Z,72.94
2018-09-25T11:58:06.101Z,71.40
2018-09-25T12:03:02.731Z,70.86
2018-09-25T12:07:59.123Z,70.03
2018-09-25T12:12:54.065Z,69.39
2018-09-25T12:17:49.810Z,66.96
2018-09-25T12:22:45.987Z,65.78
2018-09-25T12:27:42.018Z,68.07
2018-09-25T12:32:37.644Z,67.02
2018-09-25T12:37:34.201Z,67.94
2018-09-25T12:42:29.417Z,69.23
2018-09-25T12:47:25.711Z,67.66
2018-09-25T12:52:21.175Z,71.39
2018-09-25T12:57:16.951Z,75.98
2018-09-25T13:02:14.119Z,74.65
2018-09-25T13:07:09.571Z,75.51
2018-09-25T13:12:06.600Z,75.60
2018-09-25T13:17:02.170Z,73.88
2018-09-25T13:21:59.130Z,75.85
2018-09-25T13:26:54.272Z,75.37
2018-09-25T13:31:50.074Z,76.46
2018-09-25T13:36:47.261Z,74.26
2018-09-25T13:46:45.557Z,76.14
2018-09-25T13:51:41.319Z,79.39
2018-09-25T13:56:37.070Z,78.14
2018-09-25T14:01:32.910Z,77.00
2018-09-25T14:06:29.418Z,77.95
2018-09-25T14:11:25.373Z,76.71
2018-09-25T14:16:21.002Z,79.58
2018-09-25T14:21:17.311Z,79.58
2018-09-25T14:26:13.097Z,79.58
2018-09-25T14:31:09.164Z,77.95
2018-09-25T14:36:06.637Z,78.34
2018-09-25T14:41:02.017Z,79.58
2018-09-25T14:45:58.043Z,78.81
2018-09-25T14:50:55.009Z,80.63
2018-09-25T14:55:51.701Z,79.00
2018-09-25T15:00:47.509Z,78.24
2018-09-25T15:05:43.388Z,80.25
2018-09-25T15:10:38.998Z,79.39
2018-09-25T15:15:34.926Z,79.29
2018-09-25T15:20:31.045Z,78.43
2018-09-25T15:25:26.571Z,77.95
2018-09-25T15:30:23.501Z,81.30
2018-09-25T15:35:19.309Z,82.41
2018-09-25T15:40:16.632Z,82.60
2018-09-25T15:45:12.569Z,81.26
2018-09-25T15:50:09.377Z,82.98
2018-09-25T15:55:04.917Z,82.98
2018-09-25T16:00:01.043Z,82.60
2018-09-25T16:04:57.852Z,83.08
2018-09-25T16:09:53.369Z,82.60
2018-09-25T16:14:49.197Z,83.37
2018-09-25T16:19:45.337Z,81.93
2018-09-25T16:24:40.994Z,81.93
2018-09-25T16:29:36.971Z,81.55
2018-09-25T16:34:33.681Z,80.50
2018-09-25T16:39:29.322Z,81.07
2018-09-25T16:44:25.570Z,80.21
2018-09-25T16:49:21.260Z,81.36
2018-09-25T16:54:17.395Z,82.60
2018-09-25T16:59:13.287Z,83.27
2018-09-25T17:04:09.610Z,83.56
2018-09-25T17:09:05.396Z,82.56
2018-09-25T17:14:01.272Z,83.65
2018-09-25T17:18:57.269Z,85.24
2018-09-25T17:23:53.007Z,86.96
2018-09-25T17:28:48.347Z,87.29
2018-09-25T17:33:44.731Z,89.68
2018-09-25T17:38:40.272Z,91.78
2018-09-25T17:43:36.167Z,95.61
2018-09-25T17:48:33.074Z,96.70
2018-09-25T17:53:28.365Z,96.51
2018-09-25T17:58:24.141Z,96.98
2018-09-25T18:03:19.894Z,96.61
2018-09-25T18:08:15.788Z,97.18
2018-09-25T18:13:11.909Z,97.37
2018-09-25T18:18:07.749Z,97.89
2018-09-25T18:23:03.518Z,99.80
2018-09-25T18:27:59.280Z,99.99
2018-09-25T18:32:55.150Z,99.99
2018-09-25T18:37:51.133Z,99.99
2018-09-25T18:42:46.959Z,99.99
2018-09-25T18:47:42.648Z,99.99
2018-09-25T18:52:38.570Z,99.99
2018-09-25T18:57:34.546Z,99.99
2018-09-25T19:02:30.113Z,99.99
2018-09-25T19:07:25.766Z,99.99
2018-09-25T19:12:22.470Z,99.99
2018-09-25T19:17:18.902Z,99.99
2018-09-25T19:22:15.338Z,99.99
2018-09-25T19:27:10.655Z,99.99
2018-09-25T19:32:07.762Z,99.99
2018-09-25T19:37:05.069Z,99.99
2018-09-25T19:42:02.106Z,99.99
2018-09-25T19:46:57.582Z,99.99
2018-09-25T19:51:53.808Z,99.99
2018-09-25T19:56:49.493Z,99.99
2018-09-25T20:01:45.091Z,99.99
2018-09-25T20:06:40.795Z,99.99
2018-09-25T20:11:37.912Z,99.99
2018-09-25T20:16:34.471Z,99.99
2018-09-25T20:21:31.012Z,99.99
2018-09-25T20:26:26.467Z,99.99
2018-09-25T20:31:22.125Z,99.99
2018-09-25T20:36:18.096Z,99.99
2018-09-25T20:41:14.066Z,99.99
2018-09-25T20:46:10.827Z,99.99
2018-09-25T20:51:06.442Z,99.99
2018-09-25T20:56:03.102Z,99.99
2018-09-25T21:00:58.689Z,99.99
2018-09-25T21:05:54.549Z,99.99
2018-09-25T21:10:50.955Z,99.99
2018-09-25T21:15:46.653Z,99.99
2018-09-25T21:20:43.140Z,99.99
2018-09-25T21:25:38.795Z,99.99
2018-09-25T21:30:34.954Z,99.99
2018-09-25T21:35:30.743Z,99.99
2018-09-25T21:40:26.272Z,99.99
2018-09-25T21:45:21.901Z,99.99
2018-09-25T21:50:18.503Z,99.99
2018-09-25T21:55:13.880Z,99.99
2018-09-25T22:00:09.710Z,99.99
2018-09-25T22:05:05.348Z,99.99
2018-09-25T22:10:02.248Z,99.99
2018-09-25T22:14:57.546Z,99.99
2018-09-25T22:19:53.312Z,99.99
2018-09-25T22:24:49.147Z,99.99
2018-09-25T22:29:45.106Z,99.99
2018-09-25T22:34:41.516Z,99.99
2018-09-25T22:39:37.097Z,99.99
2018-09-25T22:44:32.967Z,99.99
2018-09-25T22:49:28.527Z,99.99
2018-09-25T22:54:25.497Z,99.99
2018-09-25T22:59:21.918Z,99.99
2018-09-25T23:04:17.114Z,99.99
2018-09-25T23:09:12.761Z,99.99
2018-09-25T23:14:09.624Z,99.99
2018-09-25T23:19:04.984Z,99.99
2018-09-25T23:24:01.223Z,99.99
2018-09-25T23:28:57.642Z,99.99
2018-09-25T23:33:53.646Z,99.99
2018-09-25T23:38:49.423Z,99.99
2018-09-25T23:43:45.617Z,99.99
2018-09-25T23:48:41.617Z,99.99
2018-09-25T23:53:37.495Z,99.99
2018-09-25T23:58:34.890Z,99.99
